sensor_id;sensor_type;location;lat;lon;timestamp;pressure;altitude;pressure_sealevel;temperature;humidity
36304;BME280;22335;49.800;8.596;2023-04-26T00:01:08;100626.47;;;13.03;42.71
36304;BME280;22335;49.800;8.596;2023-04-26T00:07:52;100669.97;;;13.15;42.52
36304;BME280;22335;49.800;8.596;2023-04-26T00:14:36;100668.88;;;13.16;42.88
36304;BME280;22335;49.800;8.596;2023-04-26T00:21:20;100675.78;;;13.13;42.71
36304;BME280;22335;49.800;8.596;2023-04-26T00:28:05;100642.19;;;12.79;42.93
36304;BME280;22335;49.800;8.596;2023-04-26T00:34:49;100689.78;;;12.93;43.14
36304;BME280;22335;49.800;8.596;2023-04-26T00:41:32;100663.06;;;12.80;43.16
36304;BME280;22335;49.800;8.596;2023-04-26T00:48:18;100638.03;;;12.62;43.21
36304;BME280;22335;49.800;8.596;2023-04-26T00:55:03;100684.53;;;12.97;42.74
36304;BME280;22335;49.800;8.596;2023-04-26T01:01:47;100686.41;;;13.01;42.86
36304;BME280;22335;49.800;8.596;2023-04-26T01:08:32;100678.41;;;12.81;42.92
36304;BME280;22335;49.800;8.596;2023-04-26T01:15:16;100694.94;;;12.76;42.75
36304;BME280;22335;49.800;8.596;2023-04-26T01:21:59;100673.81;;;12.76;42.42
36304;BME280;22335;49.800;8.596;2023-04-26T01:28:44;100666.88;;;12.60;42.95
36304;BME280;22335;49.800;8.596;2023-04-26T01:35:30;100678.78;;;12.50;42.78
36304;BME280;22335;49.800;8.596;2023-04-26T01:42:13;100676.56;;;12.28;43.10
36304;BME280;22335;49.800;8.596;2023-04-26T01:48:58;100677.03;;;12.11;42.95
36304;BME280;22335;49.800;8.596;2023-04-26T01:55:43;100685.97;;;11.93;43.48
36304;BME280;22335;49.800;8.596;2023-04-26T02:02:27;100688.75;;;11.88;43.42
36304;BME280;22335;49.800;8.596;2023-04-26T02:09:12;100678.34;;;11.85;43.41
36304;BME280;22335;49.800;8.596;2023-04-26T02:15:56;100695.19;;;11.68;43.76
36304;BME280;22335;49.800;8.596;2023-04-26T02:22:40;100522.66;;;10.60;43.96
36304;BME280;22335;49.800;8.596;2023-04-26T02:29:24;100674.16;;;11.58;44.06
36304;BME280;22335;49.800;8.596;2023-04-26T02:36:16;100674.09;;;11.68;43.65
36304;BME280;22335;49.800;8.596;2023-04-26T02:43:00;100603.03;;;11.08;43.78
36304;BME280;22335;49.800;8.596;2023-04-26T03:04:47;100688.84;;;10.89;44.88
36304;BME280;22335;49.800;8.596;2023-04-26T03:11:30;100688.03;;;10.83;44.78
36304;BME280;22335;49.800;8.596;2023-04-26T03:18:14;100682.63;;;10.68;44.75
36304;BME280;22335;49.800;8.596;2023-04-26T03:24:59;100676.94;;;10.54;44.90
36304;BME280;22335;49.800;8.596;2023-04-26T03:31:44;100686.22;;;10.53;44.93
36304;BME280;22335;49.800;8.596;2023-04-26T03:38:27;100692.00;;;10.46;44.87
36304;BME280;22335;49.800;8.596;2023-04-26T03:45:12;100680.56;;;10.34;45.07
36304;BME280;22335;49.800;8.596;2023-04-26T03:51:56;100690.13;;;10.36;45.20
36304;BME280;22335;49.800;8.596;2023-04-26T03:58:39;100684.09;;;10.39;45.03
36304;BME280;22335;49.800;8.596;2023-04-26T04:05:25;100674.25;;;10.38;45.44
36304;BME280;22335;49.800;8.596;2023-04-26T04:12:10;100689.00;;;10.43;45.12
36304;BME280;22335;49.800;8.596;2023-04-26T04:18:56;100696.69;;;10.30;45.39
36304;BME280;22335;49.800;8.596;2023-04-26T04:25:40;100690.66;;;10.38;45.32
36304;BME280;22335;49.800;8.596;2023-04-26T04:32:26;100697.75;;;10.39;45.63
36304;BME280;22335;49.800;8.596;2023-04-26T04:39:10;100696.41;;;10.42;45.24
36304;BME280;22335;49.800;8.596;2023-04-26T04:45:59;100706.56;;;10.31;45.33
36304;BME280;22335;49.800;8.596;2023-04-26T04:52:42;100716.13;;;10.29;45.49
36304;BME280;22335;49.800;8.596;2023-04-26T04:59:26;100724.56;;;10.17;45.86
36304;BME280;22335;49.800;8.596;2023-04-26T05:06:11;100704.09;;;9.99;45.81
36304;BME280;22335;49.800;8.596;2023-04-26T05:12:55;100727.88;;;10.19;45.88
36304;BME280;22335;49.800;8.596;2023-04-26T05:19:39;100737.72;;;10.41;46.34
36304;BME280;22335;49.800;8.596;2023-04-26T05:26:23;100731.91;;;10.57;45.87
36304;BME280;22335;49.800;8.596;2023-04-26T05:33:11;100738.13;;;10.78;46.07
36304;BME280;22335;49.800;8.596;2023-04-26T05:40:01;100736.41;;;11.03;45.97
36304;BME280;22335;49.800;8.596;2023-04-26T05:46:48;100747.47;;;11.32;46.01
36304;BME280;22335;49.800;8.596;2023-04-26T05:53:31;100753.41;;;11.49;46.04
36304;BME280;22335;49.800;8.596;2023-04-26T06:00:15;100752.47;;;11.64;46.24
36304;BME280;22335;49.800;8.596;2023-04-26T06:07:03;100763.97;;;12.06;45.37
36304;BME280;22335;49.800;8.596;2023-04-26T06:13:47;100719.19;;;11.42;46.17
36304;BME280;22335;49.800;8.596;2023-04-26T06:20:31;100777.56;;;11.87;46.42
36304;BME280;22335;49.800;8.596;2023-04-26T06:27:17;100764.78;;;12.06;46.40
36304;BME280;22335;49.800;8.596;2023-04-26T06:34:03;100745.78;;;11.81;46.34
36304;BME280;22335;49.800;8.596;2023-04-26T06:40:47;100747.56;;;12.00;46.29
36304;BME280;22335;49.800;8.596;2023-04-26T06:47:33;100792.97;;;12.46;46.62
36304;BME280;22335;49.800;8.596;2023-04-26T06:54:16;100777.94;;;12.67;45.89
36304;BME280;22335;49.800;8.596;2023-04-26T07:00:59;100779.75;;;13.01;45.67
36304;BME280;22335;49.800;8.596;2023-04-26T07:07:45;100769.00;;;13.29;45.31
36304;BME280;22335;49.800;8.596;2023-04-26T07:14:30;100776.56;;;13.37;45.31
36304;BME280;22335;49.800;8.596;2023-04-26T07:21:13;100749.25;;;13.27;44.97
36304;BME280;22335;49.800;8.596;2023-04-26T07:27:58;100778.13;;;13.62;44.57
36304;BME280;22335;49.800;8.596;2023-04-26T07:34:41;100772.13;;;13.79;44.16
36304;BME280;22335;49.800;8.596;2023-04-26T07:41:25;100763.44;;;13.91;43.87
36304;BME280;22335;49.800;8.596;2023-04-26T07:48:10;100756.38;;;14.17;44.45
36304;BME280;22335;49.800;8.596;2023-04-26T07:54:54;100764.22;;;14.24;43.95
36304;BME280;22335;49.800;8.596;2023-04-26T08:01:37;100755.28;;;14.32;43.85
36304;BME280;22335;49.800;8.596;2023-04-26T08:08:22;100761.56;;;14.51;42.93
36304;BME280;22335;49.800;8.596;2023-04-26T08:15:06;100767.78;;;14.57;42.87
36304;BME280;22335;49.800;8.596;2023-04-26T08:21:50;100766.91;;;14.75;43.01
36304;BME280;22335;49.800;8.596;2023-04-26T08:28:35;100767.00;;;14.98;41.89
36304;BME280;22335;49.800;8.596;2023-04-26T08:35:19;100767.41;;;15.19;41.75
36304;BME280;22335;49.800;8.596;2023-04-26T08:42:05;100758.06;;;15.42;41.36
36304;BME280;22335;49.800;8.596;2023-04-26T08:49:04;100751.69;;;15.56;40.86
36304;BME280;22335;49.800;8.596;2023-04-26T08:55:55;100751.94;;;15.82;40.35
36304;BME280;22335;49.800;8.596;2023-04-26T09:02:39;100753.50;;;15.97;40.33
36304;BME280;22335;49.800;8.596;2023-04-26T09:09:26;100741.66;;;15.96;39.76
36304;BME280;22335;49.800;8.596;2023-04-26T09:16:10;100747.75;;;15.84;39.10
36304;BME280;22335;49.800;8.596;2023-04-26T09:23:03;100740.16;;;15.67;39.41
36304;BME280;22335;49.800;8.596;2023-04-26T09:30:03;100748.25;;;15.86;38.88
36304;BME280;22335;49.800;8.596;2023-04-26T09:36:49;100739.47;;;15.84;39.47
36304;BME280;22335;49.800;8.596;2023-04-26T09:43:36;100743.84;;;15.85;39.04
36304;BME280;22335;49.800;8.596;2023-04-26T09:50:29;100738.97;;;16.05;38.14
36304;BME280;22335;49.800;8.596;2023-04-26T09:57:13;100728.75;;;16.36;37.73
36304;BME280;22335;49.800;8.596;2023-04-26T10:03:59;100718.06;;;16.44;38.13
36304;BME280;22335;49.800;8.596;2023-04-26T10:10:46;100725.16;;;16.67;37.56
36304;BME280;22335;49.800;8.596;2023-04-26T10:17:30;100725.25;;;16.76;36.72
36304;BME280;22335;49.800;8.596;2023-04-26T10:24:13;100725.47;;;16.66;36.18
36304;BME280;22335;49.800;8.596;2023-04-26T10:30:59;100720.19;;;16.78;36.03
36304;BME280;22335;49.800;8.596;2023-04-26T10:38:07;100695.53;;;16.50;36.22
36304;BME280;22335;49.800;8.596;2023-04-26T10:44:51;100714.00;;;16.72;35.35
36304;BME280;22335;49.800;8.596;2023-04-26T10:51:37;100701.38;;;16.89;34.93
36304;BME280;22335;49.800;8.596;2023-04-26T10:58:25;100688.09;;;17.08;35.88
36304;BME280;22335;49.800;8.596;2023-04-26T11:05:09;100688.09;;;17.08;35.54
36304;BME280;22335;49.800;8.596;2023-04-26T11:11:53;100651.66;;;16.89;35.39
36304;BME280;22335;49.800;8.596;2023-04-26T11:18:38;100677.47;;;16.84;35.52
36304;BME280;22335;49.800;8.596;2023-04-26T11:25:23;100672.44;;;16.86;34.87
36304;BME280;22335;49.800;8.596;2023-04-26T11:32:10;100667.59;;;17.09;34.43
36304;BME280;22335;49.800;8.596;2023-04-26T11:38:54;100664.88;;;17.35;34.49
36304;BME280;22335;49.800;8.596;2023-04-26T11:45:38;100638.50;;;17.55;33.92
36304;BME280;22335;49.800;8.596;2023-04-26T11:52:23;100639.44;;;17.77;33.45
36304;BME280;22335;49.800;8.596;2023-04-26T11:59:07;100653.44;;;17.89;33.50
36304;BME280;22335;49.800;8.596;2023-04-26T12:05:53;100633.69;;;17.99;33.75
36304;BME280;22335;49.800;8.596;2023-04-26T12:12:42;100632.59;;;18.00;33.04
36304;BME280;22335;49.800;8.596;2023-04-26T12:19:27;100639.31;;;18.29;32.96
36304;BME280;22335;49.800;8.596;2023-04-26T12:26:10;100630.84;;;18.25;33.25
36304;BME280;22335;49.800;8.596;2023-04-26T12:32:55;100626.06;;;18.43;32.25
36304;BME280;22335;49.800;8.596;2023-04-26T12:39:43;100628.66;;;18.39;32.40
36304;BME280;22335;49.800;8.596;2023-04-26T12:46:27;100627.31;;;18.46;32.26
36304;BME280;22335;49.800;8.596;2023-04-26T12:53:12;100625.94;;;18.31;32.03
36304;BME280;22335;49.800;8.596;2023-04-26T12:59:56;100590.28;;;17.91;32.28
36304;BME280;22335;49.800;8.596;2023-04-26T13:06:39;100616.91;;;18.13;32.53
36304;BME280;22335;49.800;8.596;2023-04-26T13:13:24;100620.03;;;18.41;32.26
36304;BME280;22335;49.800;8.596;2023-04-26T13:20:13;100625.09;;;18.39;32.17
36304;BME280;22335;49.800;8.596;2023-04-26T13:26:56;100626.25;;;18.67;32.32
36304;BME280;22335;49.800;8.596;2023-04-26T13:33:41;100624.97;;;18.65;32.03
36304;BME280;22335;49.800;8.596;2023-04-26T13:40:24;100582.59;;;18.35;32.11
36304;BME280;22335;49.800;8.596;2023-04-26T13:47:10;100612.16;;;18.81;31.64
36304;BME280;22335;49.800;8.596;2023-04-26T13:53:55;100594.50;;;18.86;31.63
36304;BME280;22335;49.800;8.596;2023-04-26T14:00:39;100618.31;;;18.87;31.05
36304;BME280;22335;49.800;8.596;2023-04-26T14:07:24;100617.09;;;18.76;30.47
36304;BME280;22335;49.800;8.596;2023-04-26T14:14:09;100603.38;;;18.79;30.17
36304;BME280;22335;49.800;8.596;2023-04-26T14:20:53;100579.06;;;18.55;30.44
36304;BME280;22335;49.800;8.596;2023-04-26T14:27:37;100601.44;;;18.80;30.89
36304;BME280;22335;49.800;8.596;2023-04-26T14:34:22;100592.25;;;18.58;30.57
36304;BME280;22335;49.800;8.596;2023-04-26T14:41:06;100608.25;;;18.53;31.75
36304;BME280;22335;49.800;8.596;2023-04-26T14:47:50;100604.28;;;18.62;31.43
36304;BME280;22335;49.800;8.596;2023-04-26T14:54:37;100578.84;;;18.60;30.80
36304;BME280;22335;49.800;8.596;2023-04-26T15:01:21;100589.75;;;18.65;30.48
36304;BME280;22335;49.800;8.596;2023-04-26T15:08:05;100571.66;;;18.68;29.94
36304;BME280;22335;49.800;8.596;2023-04-26T15:14:50;100557.91;;;18.80;30.81
36304;BME280;22335;49.800;8.596;2023-04-26T15:21:34;100560.81;;;19.05;30.58
36304;BME280;22335;49.800;8.596;2023-04-26T15:28:17;100557.69;;;19.06;30.50
36304;BME280;22335;49.800;8.596;2023-04-26T15:35:02;100545.78;;;19.06;29.33
36304;BME280;22335;49.800;8.596;2023-04-26T15:41:47;100555.31;;;18.96;29.22
36304;BME280;22335;49.800;8.596;2023-04-26T15:48:31;100534.50;;;18.90;29.36
36304;BME280;22335;49.800;8.596;2023-04-26T15:55:16;100536.94;;;18.92;29.19
36304;BME280;22335;49.800;8.596;2023-04-26T16:02:02;100544.00;;;19.01;29.07
36304;BME280;22335;49.800;8.596;2023-04-26T16:08:46;100518.19;;;18.88;28.99
36304;BME280;22335;49.800;8.596;2023-04-26T16:15:31;100514.75;;;18.92;28.99
36304;BME280;22335;49.800;8.596;2023-04-26T16:22:15;100541.66;;;18.91;29.00
36304;BME280;22335;49.800;8.596;2023-04-26T16:28:59;100492.97;;;18.60;28.94
36304;BME280;22335;49.800;8.596;2023-04-26T16:35:48;100486.38;;;18.53;28.86
36304;BME280;22335;49.800;8.596;2023-04-26T16:42:33;100533.66;;;18.69;29.06
36304;BME280;22335;49.800;8.596;2023-04-26T16:49:16;100534.75;;;18.55;29.25
36304;BME280;22335;49.800;8.596;2023-04-26T16:56:02;100523.31;;;18.57;29.03
36304;BME280;22335;49.800;8.596;2023-04-26T17:02:48;100526.91;;;18.57;29.05
36304;BME280;22335;49.800;8.596;2023-04-26T17:09:31;100528.53;;;18.79;29.11
36304;BME280;22335;49.800;8.596;2023-04-26T17:16:17;100528.34;;;18.84;28.64
36304;BME280;22335;49.800;8.596;2023-04-26T17:23:01;100538.28;;;18.85;28.67
36304;BME280;22335;49.800;8.596;2023-04-26T17:29:45;100545.25;;;18.92;28.89
36304;BME280;22335;49.800;8.596;2023-04-26T17:36:30;100537.69;;;18.80;28.64
36304;BME280;22335;49.800;8.596;2023-04-26T17:43:13;100552.13;;;18.85;28.27
36304;BME280;22335;49.800;8.596;2023-04-26T17:49:57;100547.06;;;18.87;28.26
36304;BME280;22335;49.800;8.596;2023-04-26T17:56:42;100548.00;;;18.92;28.30
36304;BME280;22335;49.800;8.596;2023-04-26T18:03:26;100568.69;;;18.94;28.14
36304;BME280;22335;49.800;8.596;2023-04-26T18:10:11;100532.47;;;18.78;28.03
36304;BME280;22335;49.800;8.596;2023-04-26T18:16:56;100553.91;;;18.90;28.31
36304;BME280;22335;49.800;8.596;2023-04-26T18:23:40;100567.03;;;19.02;28.09
36304;BME280;22335;49.800;8.596;2023-04-26T18:30:23;100561.31;;;18.98;28.28
36304;BME280;22335;49.800;8.596;2023-04-26T18:37:08;100560.25;;;19.11;28.74
36304;BME280;22335;49.800;8.596;2023-04-26T18:43:51;100569.03;;;19.13;28.07
36304;BME280;22335;49.800;8.596;2023-04-26T18:50:35;100579.31;;;19.13;27.97
36304;BME280;22335;49.800;8.596;2023-04-26T18:57:20;100574.31;;;19.06;27.92
36304;BME280;22335;49.800;8.596;2023-04-26T19:04:04;100590.84;;;18.73;28.58
36304;BME280;22335;49.800;8.596;2023-04-26T19:10:49;100603.59;;;18.36;29.20
36304;BME280;22335;49.800;8.596;2023-04-26T19:17:33;100589.91;;;18.01;29.64
36304;BME280;22335;49.800;8.596;2023-04-26T19:24:17;100607.69;;;18.00;29.58
36304;BME280;22335;49.800;8.596;2023-04-26T19:31:01;100612.75;;;17.89;30.05
36304;BME280;22335;49.800;8.596;2023-04-26T19:37:45;100623.16;;;17.84;30.62
36304;BME280;22335;49.800;8.596;2023-04-26T19:44:29;100630.19;;;17.72;30.74
36304;BME280;22335;49.800;8.596;2023-04-26T19:51:16;100633.28;;;17.62;30.87
36304;BME280;22335;49.800;8.596;2023-04-26T19:58:01;100626.78;;;17.58;31.38
36304;BME280;22335;49.800;8.596;2023-04-26T20:04:44;100596.91;;;17.25;31.26
36304;BME280;22335;49.800;8.596;2023-04-26T20:11:27;100631.69;;;17.44;31.37
36304;BME280;22335;49.800;8.596;2023-04-26T20:18:12;100627.94;;;17.40;31.88
36304;BME280;22335;49.800;8.596;2023-04-26T20:24:56;100634.75;;;17.34;31.71
36304;BME280;22335;49.800;8.596;2023-04-26T20:31:39;100629.88;;;17.39;31.68
36304;BME280;22335;49.800;8.596;2023-04-26T20:38:24;100582.09;;;17.13;32.07
36304;BME280;22335;49.800;8.596;2023-04-26T20:45:09;100628.28;;;17.29;32.02
36304;BME280;22335;49.800;8.596;2023-04-26T20:51:53;100627.63;;;17.24;32.31
36304;BME280;22335;49.800;8.596;2023-04-26T20:58:38;100629.41;;;17.11;32.49
36304;BME280;22335;49.800;8.596;2023-04-26T21:05:22;100637.50;;;16.90;32.58
36304;BME280;22335;49.800;8.596;2023-04-26T21:12:05;100646.84;;;16.72;32.96
36304;BME280;22335;49.800;8.596;2023-04-26T21:18:50;100608.16;;;16.46;32.90
36304;BME280;22335;49.800;8.596;2023-04-26T21:25:33;100644.25;;;16.58;32.92
36304;BME280;22335;49.800;8.596;2023-04-26T21:32:18;100643.41;;;16.49;33.32
36304;BME280;22335;49.800;8.596;2023-04-26T21:39:02;100661.88;;;16.40;33.34
36304;BME280;22335;49.800;8.596;2023-04-26T21:45:46;100654.06;;;16.33;33.20
36304;BME280;22335;49.800;8.596;2023-04-26T21:52:30;100654.47;;;16.18;33.47
36304;BME280;22335;49.800;8.596;2023-04-26T21:59:15;100642.47;;;16.13;33.66
36304;BME280;22335;49.800;8.596;2023-04-26T22:06:00;100652.81;;;16.08;33.46
36304;BME280;22335;49.800;8.596;2023-04-26T22:12:43;100648.06;;;16.00;33.66
36304;BME280;22335;49.800;8.596;2023-04-26T22:19:28;100641.78;;;15.85;33.79
36304;BME280;22335;49.800;8.596;2023-04-26T22:26:11;100666.88;;;15.75;34.02
36304;BME280;22335;49.800;8.596;2023-04-26T22:32:55;100664.47;;;15.74;34.57
36304;BME280;22335;49.800;8.596;2023-04-26T22:39:41;100669.13;;;15.73;35.07
36304;BME280;22335;49.800;8.596;2023-04-26T22:46:25;100670.63;;;15.79;34.43
36304;BME280;22335;49.800;8.596;2023-04-26T22:53:08;100678.44;;;15.77;34.43
36304;BME280;22335;49.800;8.596;2023-04-26T22:59:53;100683.25;;;15.72;34.43
36304;BME280;22335;49.800;8.596;2023-04-26T23:06:36;100677.16;;;15.61;34.64
36304;BME280;22335;49.800;8.596;2023-04-26T23:13:20;100681.16;;;15.55;34.96
36304;BME280;22335;49.800;8.596;2023-04-26T23:20:06;100666.28;;;15.42;34.81
36304;BME280;22335;49.800;8.596;2023-04-26T23:26:53;100689.34;;;15.46;34.79
36304;BME280;22335;49.800;8.596;2023-04-26T23:33:36;100679.13;;;15.47;35.76
36304;BME280;22335;49.800;8.596;2023-04-26T23:40:21;100679.94;;;15.47;35.97
36304;BME280;22335;49.800;8.596;2023-04-26T23:47:04;100681.66;;;15.57;35.83
36304;BME280;22335;49.800;8.596;2023-04-26T23:53:48;100684.38;;;15.34;36.21
